Skip Navigation Links
NOAA logo - Click to go to the NOAA homepage
NOAA's National Weather Service
Alaska Aviation Weather Unit
  NWS logo - Click to go to the NWS homepage
Left Navbar Graphic     00 AKDT = 08 GMT

   
NOAA is celebrating 200 years of science, service, and stewardship. Visit the NOAA 200th celebration Web site to learn more.
USA.gov is the U.S. Government's official Web portal to all Federal, state and local government Web resources and services.
Facebook
NWS on Facebook

Important Change Regarding the AAWU Web Presence

 

Over the last several months, the AAWU has been working to navigate its webpages to a nationally supported server. Security, as well as other needs, have necessitated the change.  We have been given an extension for the site changeover while we diligently work at addressing feedback received. As of July 14, 2017, aawu.arh.noaa.gov will be discontinued. The new AAWU web address is weather.gov/aawu. It is now live and will run in-parallel with the old site until it is discontinued on July 14, 2017. Please continue to send any feedback or questions regarding the new webpages to nws.ar.aawu.webauthors@noaa.gov.  Thank you for your patience during this time of transition.
AAWU Home :: Display TAF Add Bookmark
TAF PANC 240541Z 2406/2512  33005KT P6SM VCSH FEW004 BKN060 OVC090
     FM242100 16012KT P6SM FEW060 BKN100
     FM250200 19010KT P6SM VCSH SCT035 BKN050=

4445
FTAK31 PANC 240541
TAFACV
TAF

METAR PANC 240253Z 29005KT 10SM SCT003 BKN070 OVC100 11/10 A2947= METAR PANC 240353Z 32003KT 10SM -RA SCT004 BKN065 OVC090 11/09 A2946= METAR PANC 240453Z 32004KT 10SM FEW004 SCT065 BKN110 11/09 A2946= METAR PANC 240553Z 33003KT 10SM SCT006 BKN110 10/09 A2945= METAR PANC 240653Z 31003KT 10SM FEW070 10/09 A2944= PANC 240654Z 32003KT 10SM FEW004 FEW070 10/09 A2944= PANC 240654Z 32003KT 10SM FEW004 FEW070 10/09 A2944 RMK AO2 T01000094= METAR PANC 240753Z VRB03KT 10SM FEW001 FEW070 SCT120 10/09 A2944=
 Alaska TAF Map

NOAA's National Weather Service
Alaska Aviation Weather Unit
6930 Sand Lake Road
Anchorage, AK 99502-1845
Disclaimer
Credits
Glossary
Privacy Policy
About Us
Career Opportunities
Contact AAWU Internet Services Site last modified: April, 17th 2012